sensor_id;sensor_type;location;lat;lon;timestamp;P1;durP1;ratioP1;P2;durP2;ratioP2
1368;SDS011;678;49.242;9.334;2024-02-21T00:01:40;0.10;;;0.10;;
1368;SDS011;678;49.242;9.334;2024-02-21T00:04:07;0.10;;;0.10;;
1368;SDS011;678;49.242;9.334;2024-02-21T00:06:34;0.65;;;0.65;;
1368;SDS011;678;49.242;9.334;2024-02-21T00:09:01;0.10;;;0.10;;
1368;SDS011;678;49.242;9.334;2024-02-21T00:11:29;0.55;;;0.55;;
1368;SDS011;678;49.242;9.334;2024-02-21T00:13:56;0.10;;;0.10;;
1368;SDS011;678;49.242;9.334;2024-02-21T00:16:23;0.22;;;0.22;;
1368;SDS011;678;49.242;9.334;2024-02-21T00:18:50;0.10;;;0.10;;
1368;SDS011;678;49.242;9.334;2024-02-21T00:21:17;0.10;;;0.10;;
1368;SDS011;678;49.242;9.334;2024-02-21T00:23:44;0.75;;;0.75;;
1368;SDS011;678;49.242;9.334;2024-02-21T00:26:11;0.30;;;0.30;;
1368;SDS011;678;49.242;9.334;2024-02-21T00:28:40;1.25;;;1.15;;
1368;SDS011;678;49.242;9.334;2024-02-21T00:31:07;0.17;;;0.17;;
1368;SDS011;678;49.242;9.334;2024-02-21T00:33:34;0.47;;;0.47;;
1368;SDS011;678;49.242;9.334;2024-02-21T00:36:01;0.10;;;0.10;;
1368;SDS011;678;49.242;9.334;2024-02-21T00:38:28;0.20;;;0.20;;
1368;SDS011;678;49.242;9.334;2024-02-21T00:40:55;0.10;;;0.10;;
1368;SDS011;678;49.242;9.334;2024-02-21T00:43:22;3.85;;;0.88;;
1368;SDS011;678;49.242;9.334;2024-02-21T00:45:50;0.60;;;0.60;;
1368;SDS011;678;49.242;9.334;2024-02-21T00:48:17;0.35;;;0.35;;
1368;SDS011;678;49.242;9.334;2024-02-21T00:50:45;4.40;;;1.45;;
1368;SDS011;678;49.242;9.334;2024-02-21T00:53:12;0.25;;;0.25;;
1368;SDS011;678;49.242;9.334;2024-02-21T00:55:39;0.03;;;0.03;;
1368;SDS011;678;49.242;9.334;2024-02-21T00:58:06;0.10;;;0.10;;
1368;SDS011;678;49.242;9.334;2024-02-21T01:00:33;0.70;;;0.35;;
1368;SDS011;678;49.242;9.334;2024-02-21T01:03:01;0.00;;;0.00;;
1368;SDS011;678;49.242;9.334;2024-02-21T01:05:28;0.10;;;0.10;;
1368;SDS011;678;49.242;9.334;2024-02-21T01:07:55;0.00;;;0.00;;
1368;SDS011;678;49.242;9.334;2024-02-21T01:10:22;0.22;;;0.22;;
1368;SDS011;678;49.242;9.334;2024-02-21T01:12:49;0.10;;;0.10;;
1368;SDS011;678;49.242;9.334;2024-02-21T01:15:16;0.32;;;0.20;;
1368;SDS011;678;49.242;9.334;2024-02-21T01:17:43;0.85;;;0.63;;
1368;SDS011;678;49.242;9.334;2024-02-21T01:20:12;0.10;;;0.10;;
1368;SDS011;678;49.242;9.334;2024-02-21T01:22:39;0.10;;;0.10;;
1368;SDS011;678;49.242;9.334;2024-02-21T01:25:07;0.20;;;0.20;;
1368;SDS011;678;49.242;9.334;2024-02-21T01:27:34;0.10;;;0.10;;
1368;SDS011;678;49.242;9.334;2024-02-21T01:30:01;1.30;;;1.00;;
1368;SDS011;678;49.242;9.334;2024-02-21T01:32:28;0.75;;;0.45;;
1368;SDS011;678;49.242;9.334;2024-02-21T01:34:55;0.10;;;0.10;;
1368;SDS011;678;49.242;9.334;2024-02-21T01:37:23;0.30;;;0.30;;
1368;SDS011;678;49.242;9.334;2024-02-21T01:39:50;0.22;;;0.22;;
1368;SDS011;678;49.242;9.334;2024-02-21T01:42:17;0.55;;;0.55;;
1368;SDS011;678;49.242;9.334;2024-02-21T01:44:44;0.17;;;0.17;;
1368;SDS011;678;49.242;9.334;2024-02-21T01:47:11;0.10;;;0.10;;
1368;SDS011;678;49.242;9.334;2024-02-21T01:49:39;0.10;;;0.10;;
1368;SDS011;678;49.242;9.334;2024-02-21T01:52:06;0.40;;;0.40;;
1368;SDS011;678;49.242;9.334;2024-02-21T01:54:35;0.28;;;0.28;;
1368;SDS011;678;49.242;9.334;2024-02-21T01:57:02;0.10;;;0.10;;
1368;SDS011;678;49.242;9.334;2024-02-21T01:59:30;0.10;;;0.10;;
1368;SDS011;678;49.242;9.334;2024-02-21T02:01:57;0.52;;;0.20;;
1368;SDS011;678;49.242;9.334;2024-02-21T02:04:25;0.10;;;0.10;;
1368;SDS011;678;49.242;9.334;2024-02-21T02:06:52;0.10;;;0.10;;
1368;SDS011;678;49.242;9.334;2024-02-21T02:09:21;0.10;;;0.10;;
1368;SDS011;678;49.242;9.334;2024-02-21T02:11:49;0.40;;;0.40;;
1368;SDS011;678;49.242;9.334;2024-02-21T02:14:17;0.10;;;0.10;;
1368;SDS011;678;49.242;9.334;2024-02-21T02:16:45;0.17;;;0.17;;
1368;SDS011;678;49.242;9.334;2024-02-21T02:19:13;0.10;;;0.10;;
1368;SDS011;678;49.242;9.334;2024-02-21T02:21:42;0.10;;;0.10;;
1368;SDS011;678;49.242;9.334;2024-02-21T02:24:14;0.17;;;0.15;;
1368;SDS011;678;49.242;9.334;2024-02-21T02:26:41;0.35;;;0.35;;
1368;SDS011;678;49.242;9.334;2024-02-21T02:29:08;0.13;;;0.13;;
1368;SDS011;678;49.242;9.334;2024-02-21T02:31:36;0.77;;;0.75;;
1368;SDS011;678;49.242;9.334;2024-02-21T02:34:03;0.10;;;0.10;;
1368;SDS011;678;49.242;9.334;2024-02-21T02:36:31;1.08;;;0.50;;
1368;SDS011;678;49.242;9.334;2024-02-21T02:38:58;0.25;;;0.25;;
1368;SDS011;678;49.242;9.334;2024-02-21T02:41:27;0.10;;;0.10;;
1368;SDS011;678;49.242;9.334;2024-02-21T02:43:54;0.50;;;0.50;;
1368;SDS011;678;49.242;9.334;2024-02-21T02:46:21;0.10;;;0.10;;
1368;SDS011;678;49.242;9.334;2024-02-21T02:48:48;0.43;;;0.20;;
1368;SDS011;678;49.242;9.334;2024-02-21T02:51:15;0.00;;;0.00;;
1368;SDS011;678;49.242;9.334;2024-02-21T02:53:43;0.20;;;0.20;;
1368;SDS011;678;49.242;9.334;2024-02-21T02:56:13;0.10;;;0.10;;
1368;SDS011;678;49.242;9.334;2024-02-21T02:58:42;0.30;;;0.30;;
1368;SDS011;678;49.242;9.334;2024-02-21T03:01:09;0.20;;;0.20;;
1368;SDS011;678;49.242;9.334;2024-02-21T03:03:36;0.10;;;0.10;;
1368;SDS011;678;49.242;9.334;2024-02-21T03:06:03;0.10;;;0.10;;
1368;SDS011;678;49.242;9.334;2024-02-21T03:08:30;0.20;;;0.20;;
1368;SDS011;678;49.242;9.334;2024-02-21T03:10:59;0.25;;;0.25;;
1368;SDS011;678;49.242;9.334;2024-02-21T03:13:26;0.38;;;0.38;;
1368;SDS011;678;49.242;9.334;2024-02-21T03:15:54;0.20;;;0.20;;
1368;SDS011;678;49.242;9.334;2024-02-21T03:18:21;0.20;;;0.20;;
1368;SDS011;678;49.242;9.334;2024-02-21T03:20:48;0.60;;;0.60;;
1368;SDS011;678;49.242;9.334;2024-02-21T03:23:15;0.10;;;0.10;;
1368;SDS011;678;49.242;9.334;2024-02-21T03:25:42;0.10;;;0.10;;
1368;SDS011;678;49.242;9.334;2024-02-21T03:28:09;0.25;;;0.25;;
1368;SDS011;678;49.242;9.334;2024-02-21T03:30:36;0.68;;;0.68;;
1368;SDS011;678;49.242;9.334;2024-02-21T03:33:05;0.32;;;0.20;;
1368;SDS011;678;49.242;9.334;2024-02-21T03:35:32;0.10;;;0.10;;
1368;SDS011;678;49.242;9.334;2024-02-21T03:37:59;0.22;;;0.22;;
1368;SDS011;678;49.242;9.334;2024-02-21T03:40:26;2.28;;;0.55;;
1368;SDS011;678;49.242;9.334;2024-02-21T03:42:53;0.32;;;0.32;;
1368;SDS011;678;49.242;9.334;2024-02-21T03:45:20;0.52;;;0.52;;
1368;SDS011;678;49.242;9.334;2024-02-21T03:47:47;0.10;;;0.10;;
1368;SDS011;678;49.242;9.334;2024-02-21T03:50:15;0.20;;;0.20;;
1368;SDS011;678;49.242;9.334;2024-02-21T03:52:42;0.10;;;0.10;;
1368;SDS011;678;49.242;9.334;2024-02-21T03:55:09;0.40;;;0.40;;
1368;SDS011;678;49.242;9.334;2024-02-21T03:57:36;0.10;;;0.10;;
1368;SDS011;678;49.242;9.334;2024-02-21T04:00:04;0.35;;;0.35;;
1368;SDS011;678;49.242;9.334;2024-02-21T04:02:35;0.38;;;0.38;;
1368;SDS011;678;49.242;9.334;2024-02-21T04:05:03;0.10;;;0.10;;
1368;SDS011;678;49.242;9.334;2024-02-21T04:07:32;0.35;;;0.30;;
1368;SDS011;678;49.242;9.334;2024-02-21T04:09:59;0.20;;;0.20;;
1368;SDS011;678;49.242;9.334;2024-02-21T04:12:26;0.10;;;0.10;;
1368;SDS011;678;49.242;9.334;2024-02-21T04:14:53;0.10;;;0.10;;
1368;SDS011;678;49.242;9.334;2024-02-21T04:17:20;0.10;;;0.10;;
1368;SDS011;678;49.242;9.334;2024-02-21T04:19:47;0.10;;;0.10;;
1368;SDS011;678;49.242;9.334;2024-02-21T04:22:14;0.10;;;0.10;;
1368;SDS011;678;49.242;9.334;2024-02-21T04:24:42;0.20;;;0.20;;
1368;SDS011;678;49.242;9.334;2024-02-21T04:27:09;0.10;;;0.10;;
1368;SDS011;678;49.242;9.334;2024-02-21T04:29:36;0.10;;;0.10;;
1368;SDS011;678;49.242;9.334;2024-02-21T04:32:03;0.35;;;0.35;;
1368;SDS011;678;49.242;9.334;2024-02-21T04:34:30;5.00;;;0.52;;
1368;SDS011;678;49.242;9.334;2024-02-21T04:36:57;0.30;;;0.30;;
1368;SDS011;678;49.242;9.334;2024-02-21T04:39:24;0.22;;;0.22;;
1368;SDS011;678;49.242;9.334;2024-02-21T04:41:53;0.20;;;0.20;;
1368;SDS011;678;49.242;9.334;2024-02-21T04:44:20;0.22;;;0.22;;
1368;SDS011;678;49.242;9.334;2024-02-21T04:46:47;0.20;;;0.20;;
1368;SDS011;678;49.242;9.334;2024-02-21T04:49:14;0.60;;;0.60;;
1368;SDS011;678;49.242;9.334;2024-02-21T04:51:41;0.30;;;0.30;;
1368;SDS011;678;49.242;9.334;2024-02-21T04:54:08;0.73;;;0.52;;
1368;SDS011;678;49.242;9.334;2024-02-21T04:56:35;0.13;;;0.13;;
1368;SDS011;678;49.242;9.334;2024-02-21T04:59:04;0.20;;;0.20;;
1368;SDS011;678;49.242;9.334;2024-02-21T05:01:31;0.00;;;0.00;;
1368;SDS011;678;49.242;9.334;2024-02-21T05:03:58;0.10;;;0.10;;
1368;SDS011;678;49.242;9.334;2024-02-21T05:06:25;0.43;;;0.43;;
1368;SDS011;678;49.242;9.334;2024-02-21T05:08:52;0.20;;;0.20;;
1368;SDS011;678;49.242;9.334;2024-02-21T05:11:20;0.05;;;0.05;;
1368;SDS011;678;49.242;9.334;2024-02-21T05:13:47;0.15;;;0.15;;
1368;SDS011;678;49.242;9.334;2024-02-21T05:16:15;0.10;;;0.10;;
1368;SDS011;678;49.242;9.334;2024-02-21T05:18:44;0.10;;;0.10;;
1368;SDS011;678;49.242;9.334;2024-02-21T05:21:11;1.20;;;1.10;;
1368;SDS011;678;49.242;9.334;2024-02-21T05:23:38;0.20;;;0.20;;
1368;SDS011;678;49.242;9.334;2024-02-21T05:26:05;0.13;;;0.13;;
1368;SDS011;678;49.242;9.334;2024-02-21T05:28:32;0.10;;;0.10;;
1368;SDS011;678;49.242;9.334;2024-02-21T05:30:59;0.10;;;0.10;;
1368;SDS011;678;49.242;9.334;2024-02-21T05:33:28;0.10;;;0.10;;
1368;SDS011;678;49.242;9.334;2024-02-21T05:35:55;0.10;;;0.10;;
1368;SDS011;678;49.242;9.334;2024-02-21T05:38:22;0.10;;;0.10;;
1368;SDS011;678;49.242;9.334;2024-02-21T05:40:49;0.20;;;0.20;;
1368;SDS011;678;49.242;9.334;2024-02-21T05:43:16;0.70;;;0.70;;
1368;SDS011;678;49.242;9.334;2024-02-21T05:45:43;0.10;;;0.10;;
1368;SDS011;678;49.242;9.334;2024-02-21T05:48:10;0.08;;;0.08;;
1368;SDS011;678;49.242;9.334;2024-02-21T05:50:38;0.40;;;0.40;;
1368;SDS011;678;49.242;9.334;2024-02-21T05:53:05;0.10;;;0.10;;
1368;SDS011;678;49.242;9.334;2024-02-21T05:55:32;0.50;;;0.50;;
1368;SDS011;678;49.242;9.334;2024-02-21T05:57:59;0.22;;;0.22;;
1368;SDS011;678;49.242;9.334;2024-02-21T06:00:27;0.38;;;0.38;;
1368;SDS011;678;49.242;9.334;2024-02-21T06:02:54;0.47;;;0.47;;
1368;SDS011;678;49.242;9.334;2024-02-21T06:05:21;0.03;;;0.03;;
1368;SDS011;678;49.242;9.334;2024-02-21T06:07:50;0.20;;;0.20;;
1368;SDS011;678;49.242;9.334;2024-02-21T06:10:17;0.10;;;0.10;;
1368;SDS011;678;49.242;9.334;2024-02-21T06:12:44;0.10;;;0.10;;
1368;SDS011;678;49.242;9.334;2024-02-21T06:15:11;0.20;;;0.20;;
1368;SDS011;678;49.242;9.334;2024-02-21T06:17:38;0.30;;;0.30;;
1368;SDS011;678;49.242;9.334;2024-02-21T06:20:05;0.10;;;0.10;;
1368;SDS011;678;49.242;9.334;2024-02-21T06:22:32;1.35;;;0.57;;
1368;SDS011;678;49.242;9.334;2024-02-21T06:25:01;0.20;;;0.20;;
1368;SDS011;678;49.242;9.334;2024-02-21T06:27:28;0.10;;;0.10;;
1368;SDS011;678;49.242;9.334;2024-02-21T06:29:55;0.10;;;0.10;;
1368;SDS011;678;49.242;9.334;2024-02-21T06:32:22;0.20;;;0.20;;
1368;SDS011;678;49.242;9.334;2024-02-21T06:34:49;0.20;;;0.20;;
1368;SDS011;678;49.242;9.334;2024-02-21T06:37:16;0.05;;;0.05;;
1368;SDS011;678;49.242;9.334;2024-02-21T06:39:43;0.20;;;0.20;;
1368;SDS011;678;49.242;9.334;2024-02-21T06:42:11;0.00;;;0.00;;
1368;SDS011;678;49.242;9.334;2024-02-21T06:44:39;0.13;;;0.13;;
1368;SDS011;678;49.242;9.334;2024-02-21T06:47:06;0.10;;;0.10;;
1368;SDS011;678;49.242;9.334;2024-02-21T06:49:33;0.10;;;0.10;;
1368;SDS011;678;49.242;9.334;2024-02-21T06:52:02;0.00;;;0.00;;
1368;SDS011;678;49.242;9.334;2024-02-21T06:54:29;0.28;;;0.28;;
1368;SDS011;678;49.242;9.334;2024-02-21T06:56:56;0.10;;;0.10;;
1368;SDS011;678;49.242;9.334;2024-02-21T06:59:24;1.10;;;0.45;;
1368;SDS011;678;49.242;9.334;2024-02-21T07:01:53;0.17;;;0.17;;
1368;SDS011;678;49.242;9.334;2024-02-21T07:04:20;0.52;;;0.52;;
1368;SDS011;678;49.242;9.334;2024-02-21T07:06:47;0.40;;;0.40;;
1368;SDS011;678;49.242;9.334;2024-02-21T07:09:14;0.25;;;0.25;;
1368;SDS011;678;49.242;9.334;2024-02-21T07:11:41;0.10;;;0.10;;
1368;SDS011;678;49.242;9.334;2024-02-21T07:14:08;0.10;;;0.10;;
1368;SDS011;678;49.242;9.334;2024-02-21T07:16:38;0.10;;;0.10;;
1368;SDS011;678;49.242;9.334;2024-02-21T07:19:05;0.50;;;0.50;;
1368;SDS011;678;49.242;9.334;2024-02-21T07:21:32;0.10;;;0.10;;
1368;SDS011;678;49.242;9.334;2024-02-21T07:23:59;0.20;;;0.20;;
1368;SDS011;678;49.242;9.334;2024-02-21T07:26:26;0.10;;;0.10;;
1368;SDS011;678;49.242;9.334;2024-02-21T07:28:53;0.10;;;0.10;;
1368;SDS011;678;49.242;9.334;2024-02-21T07:31:20;0.43;;;0.43;;
1368;SDS011;678;49.242;9.334;2024-02-21T07:33:49;0.05;;;0.05;;
1368;SDS011;678;49.242;9.334;2024-02-21T07:36:23;0.85;;;0.68;;
1368;SDS011;678;49.242;9.334;2024-02-21T07:38:50;0.65;;;0.65;;
1368;SDS011;678;49.242;9.334;2024-02-21T07:41:17;0.10;;;0.10;;
1368;SDS011;678;49.242;9.334;2024-02-21T07:43:44;0.15;;;0.15;;
1368;SDS011;678;49.242;9.334;2024-02-21T07:46:13;0.10;;;0.10;;
1368;SDS011;678;49.242;9.334;2024-02-21T07:48:40;0.00;;;0.00;;
1368;SDS011;678;49.242;9.334;2024-02-21T07:51:08;0.52;;;0.52;;
1368;SDS011;678;49.242;9.334;2024-02-21T07:53:35;0.10;;;0.10;;
1368;SDS011;678;49.242;9.334;2024-02-21T07:56:03;0.05;;;0.05;;
1368;SDS011;678;49.242;9.334;2024-02-21T07:58:30;0.30;;;0.25;;
1368;SDS011;678;49.242;9.334;2024-02-21T08:00:57;0.00;;;0.00;;
1368;SDS011;678;49.242;9.334;2024-02-21T08:03:24;0.40;;;0.32;;
1368;SDS011;678;49.242;9.334;2024-02-21T08:05:51;0.05;;;0.05;;
1368;SDS011;678;49.242;9.334;2024-02-21T08:08:19;0.55;;;0.55;;
1368;SDS011;678;49.242;9.334;2024-02-21T08:10:47;0.15;;;0.15;;
1368;SDS011;678;49.242;9.334;2024-02-21T08:13:14;0.10;;;0.10;;
1368;SDS011;678;49.242;9.334;2024-02-21T08:15:41;1.65;;;0.85;;
1368;SDS011;678;49.242;9.334;2024-02-21T08:18:08;0.57;;;0.57;;
1368;SDS011;678;49.242;9.334;2024-02-21T08:20:35;0.28;;;0.28;;
1368;SDS011;678;49.242;9.334;2024-02-21T08:23:02;0.77;;;0.50;;
1368;SDS011;678;49.242;9.334;2024-02-21T08:25:31;0.10;;;0.10;;
1368;SDS011;678;49.242;9.334;2024-02-21T08:27:59;0.17;;;0.17;;
1368;SDS011;678;49.242;9.334;2024-02-21T08:30:26;0.00;;;0.00;;
1368;SDS011;678;49.242;9.334;2024-02-21T08:32:53;0.35;;;0.32;;
1368;SDS011;678;49.242;9.334;2024-02-21T08:35:20;0.22;;;0.20;;
1368;SDS011;678;49.242;9.334;2024-02-21T08:37:48;0.10;;;0.10;;
1368;SDS011;678;49.242;9.334;2024-02-21T08:40:15;0.35;;;0.20;;
1368;SDS011;678;49.242;9.334;2024-02-21T08:42:47;0.25;;;0.25;;
1368;SDS011;678;49.242;9.334;2024-02-21T08:45:14;0.43;;;0.43;;
1368;SDS011;678;49.242;9.334;2024-02-21T08:47:41;0.73;;;0.73;;
1368;SDS011;678;49.242;9.334;2024-02-21T08:50:09;5.88;;;0.35;;
1368;SDS011;678;49.242;9.334;2024-02-21T08:52:36;0.30;;;0.30;;
1368;SDS011;678;49.242;9.334;2024-02-21T08:55:04;0.15;;;0.15;;
1368;SDS011;678;49.242;9.334;2024-02-21T08:57:31;0.30;;;0.30;;
1368;SDS011;678;49.242;9.334;2024-02-21T09:00:03;0.20;;;0.20;;
1368;SDS011;678;49.242;9.334;2024-02-21T09:02:34;0.30;;;0.30;;
1368;SDS011;678;49.242;9.334;2024-02-21T09:05:01;0.00;;;0.00;;
1368;SDS011;678;49.242;9.334;2024-02-21T09:07:30;0.10;;;0.10;;
1368;SDS011;678;49.242;9.334;2024-02-21T09:09:57;0.05;;;0.05;;
1368;SDS011;678;49.242;9.334;2024-02-21T09:12:24;0.10;;;0.10;;
1368;SDS011;678;49.242;9.334;2024-02-21T09:14:51;0.00;;;0.00;;
1368;SDS011;678;49.242;9.334;2024-02-21T09:17:19;0.77;;;0.77;;
1368;SDS011;678;49.242;9.334;2024-02-21T09:19:46;0.10;;;0.10;;
1368;SDS011;678;49.242;9.334;2024-02-21T09:22:14;0.22;;;0.22;;
1368;SDS011;678;49.242;9.334;2024-02-21T09:24:41;0.08;;;0.08;;
1368;SDS011;678;49.242;9.334;2024-02-21T09:27:08;0.10;;;0.10;;
1368;SDS011;678;49.242;9.334;2024-02-21T09:29:35;0.10;;;0.10;;
1368;SDS011;678;49.242;9.334;2024-02-21T09:32:02;0.20;;;0.20;;
1368;SDS011;678;49.242;9.334;2024-02-21T09:34:30;0.20;;;0.20;;
1368;SDS011;678;49.242;9.334;2024-02-21T09:36:57;0.10;;;0.10;;
1368;SDS011;678;49.242;9.334;2024-02-21T09:39:24;0.65;;;0.65;;
1368;SDS011;678;49.242;9.334;2024-02-21T09:41:53;0.10;;;0.10;;
1368;SDS011;678;49.242;9.334;2024-02-21T09:44:20;0.43;;;0.32;;
1368;SDS011;678;49.242;9.334;2024-02-21T09:46:51;0.40;;;0.40;;
1368;SDS011;678;49.242;9.334;2024-02-21T09:49:21;0.32;;;0.32;;
1368;SDS011;678;49.242;9.334;2024-02-21T09:51:51;0.10;;;0.10;;
1368;SDS011;678;49.242;9.334;2024-02-21T09:54:18;0.00;;;0.00;;
1368;SDS011;678;49.242;9.334;2024-02-21T09:56:46;0.20;;;0.20;;
1368;SDS011;678;49.242;9.334;2024-02-21T09:59:13;0.10;;;0.10;;
1368;SDS011;678;49.242;9.334;2024-02-21T10:01:41;0.17;;;0.17;;
1368;SDS011;678;49.242;9.334;2024-02-21T10:04:09;0.75;;;0.32;;
1368;SDS011;678;49.242;9.334;2024-02-21T10:06:36;0.82;;;0.82;;
1368;SDS011;678;49.242;9.334;2024-02-21T10:09:05;0.40;;;0.25;;
1368;SDS011;678;49.242;9.334;2024-02-21T10:11:32;0.20;;;0.20;;
1368;SDS011;678;49.242;9.334;2024-02-21T10:14:04;0.10;;;0.10;;
1368;SDS011;678;49.242;9.334;2024-02-21T10:16:31;0.15;;;0.15;;
1368;SDS011;678;49.242;9.334;2024-02-21T10:18:58;0.00;;;0.00;;
1368;SDS011;678;49.242;9.334;2024-02-21T10:21:25;0.28;;;0.28;;
1368;SDS011;678;49.242;9.334;2024-02-21T10:23:52;0.30;;;0.30;;
1368;SDS011;678;49.242;9.334;2024-02-21T10:26:21;0.28;;;0.28;;
1368;SDS011;678;49.242;9.334;2024-02-21T10:28:48;0.10;;;0.10;;
1368;SDS011;678;49.242;9.334;2024-02-21T10:31:23;0.43;;;0.25;;
1368;SDS011;678;49.242;9.334;2024-02-21T10:33:53;0.10;;;0.10;;
1368;SDS011;678;49.242;9.334;2024-02-21T10:36:20;1.40;;;1.02;;
1368;SDS011;678;49.242;9.334;2024-02-21T10:38:47;0.40;;;0.40;;
1368;SDS011;678;49.242;9.334;2024-02-21T10:41:14;0.10;;;0.10;;
1368;SDS011;678;49.242;9.334;2024-02-21T10:43:43;0.20;;;0.20;;
1368;SDS011;678;49.242;9.334;2024-02-21T10:46:13;0.30;;;0.30;;
1368;SDS011;678;49.242;9.334;2024-02-21T10:48:42;0.20;;;0.20;;
1368;SDS011;678;49.242;9.334;2024-02-21T10:51:13;0.10;;;0.10;;
1368;SDS011;678;49.242;9.334;2024-02-21T10:53:41;0.55;;;0.55;;
1368;SDS011;678;49.242;9.334;2024-02-21T10:56:15;18.63;;;2.85;;
1368;SDS011;678;49.242;9.334;2024-02-21T10:58:44;4.93;;;4.32;;
1368;SDS011;678;49.242;9.334;2024-02-21T11:01:12;2.15;;;2.05;;
1368;SDS011;678;49.242;9.334;2024-02-21T11:03:40;5.38;;;2.35;;
1368;SDS011;678;49.242;9.334;2024-02-21T11:06:08;3.03;;;2.83;;
1368;SDS011;678;49.242;9.334;2024-02-21T11:08:35;3.75;;;3.47;;
1368;SDS011;678;49.242;9.334;2024-02-21T11:11:03;2.70;;;1.77;;
1368;SDS011;678;49.242;9.334;2024-02-21T11:13:31;3.25;;;2.80;;
1368;SDS011;678;49.242;9.334;2024-02-21T11:16:07;2.58;;;2.47;;
1368;SDS011;678;49.242;9.334;2024-02-21T11:18:35;58.92;;;1.75;;
1368;SDS011;678;49.242;9.334;2024-02-21T11:21:02;2.03;;;1.90;;
1368;SDS011;678;49.242;9.334;2024-02-21T11:23:30;2.95;;;2.65;;
1368;SDS011;678;49.242;9.334;2024-02-21T11:26:04;4.75;;;1.25;;
1368;SDS011;678;49.242;9.334;2024-02-21T11:28:31;1.33;;;1.15;;
1368;SDS011;678;49.242;9.334;2024-02-21T11:31:07;0.63;;;0.63;;
1368;SDS011;678;49.242;9.334;2024-02-21T11:33:35;1.42;;;1.27;;
1368;SDS011;678;49.242;9.334;2024-02-21T11:36:02;1.17;;;0.75;;
1368;SDS011;678;49.242;9.334;2024-02-21T11:38:29;0.93;;;0.93;;
1368;SDS011;678;49.242;9.334;2024-02-21T11:40:56;1.58;;;1.48;;
1368;SDS011;678;49.242;9.334;2024-02-21T11:43:24;0.32;;;0.32;;
1368;SDS011;678;49.242;9.334;2024-02-21T11:45:57;1.02;;;1.02;;
1368;SDS011;678;49.242;9.334;2024-02-21T11:48:26;1.13;;;0.98;;
1368;SDS011;678;49.242;9.334;2024-02-21T11:50:53;2.80;;;2.50;;
1368;SDS011;678;49.242;9.334;2024-02-21T11:53:21;0.55;;;0.55;;
1368;SDS011;678;49.242;9.334;2024-02-21T11:55:48;1.55;;;1.55;;
1368;SDS011;678;49.242;9.334;2024-02-21T11:58:15;0.68;;;0.68;;
1368;SDS011;678;49.242;9.334;2024-02-21T12:00:42;2.92;;;1.75;;
1368;SDS011;678;49.242;9.334;2024-02-21T12:03:09;0.65;;;0.63;;
1368;SDS011;678;49.242;9.334;2024-02-21T12:05:37;1.05;;;1.05;;
1368;SDS011;678;49.242;9.334;2024-02-21T12:08:04;6.43;;;2.60;;
1368;SDS011;678;49.242;9.334;2024-02-21T12:10:32;0.50;;;0.50;;
1368;SDS011;678;49.242;9.334;2024-02-21T12:13:06;4.22;;;3.83;;
1368;SDS011;678;49.242;9.334;2024-02-21T12:15:34;8.68;;;6.20;;
1368;SDS011;678;49.242;9.334;2024-02-21T12:18:01;4.00;;;3.63;;
1368;SDS011;678;49.242;9.334;2024-02-21T12:20:28;3.42;;;3.13;;
1368;SDS011;678;49.242;9.334;2024-02-21T12:22:57;2.35;;;2.25;;
1368;SDS011;678;49.242;9.334;2024-02-21T12:25:26;3.08;;;2.85;;
1368;SDS011;678;49.242;9.334;2024-02-21T12:27:54;12.70;;;7.22;;
1368;SDS011;678;49.242;9.334;2024-02-21T12:30:21;7.32;;;6.68;;
1368;SDS011;678;49.242;9.334;2024-02-21T12:32:48;10.23;;;8.63;;
1368;SDS011;678;49.242;9.334;2024-02-21T12:35:16;9.20;;;7.40;;
1368;SDS011;678;49.242;9.334;2024-02-21T12:37:44;9.90;;;8.13;;
1368;SDS011;678;49.242;9.334;2024-02-21T12:40:12;10.50;;;9.45;;
1368;SDS011;678;49.242;9.334;2024-02-21T12:42:39;12.20;;;7.55;;
1368;SDS011;678;49.242;9.334;2024-02-21T12:45:07;20.75;;;14.75;;
1368;SDS011;678;49.242;9.334;2024-02-21T12:47:34;26.30;;;13.73;;
1368;SDS011;678;49.242;9.334;2024-02-21T12:50:01;26.67;;;15.57;;
1368;SDS011;678;49.242;9.334;2024-02-21T12:52:29;19.75;;;15.30;;
1368;SDS011;678;49.242;9.334;2024-02-21T12:54:56;15.55;;;13.38;;
1368;SDS011;678;49.242;9.334;2024-02-21T12:57:25;12.90;;;11.00;;
1368;SDS011;678;49.242;9.334;2024-02-21T12:59:52;15.98;;;14.35;;
1368;SDS011;678;49.242;9.334;2024-02-21T13:02:19;13.38;;;11.32;;
1368;SDS011;678;49.242;9.334;2024-02-21T13:04:46;14.15;;;12.75;;
1368;SDS011;678;49.242;9.334;2024-02-21T13:07:13;16.40;;;10.85;;
1368;SDS011;678;49.242;9.334;2024-02-21T13:09:40;20.25;;;12.48;;
1368;SDS011;678;49.242;9.334;2024-02-21T13:12:07;12.80;;;11.55;;
1368;SDS011;678;49.242;9.334;2024-02-21T13:14:36;12.55;;;10.50;;
1368;SDS011;678;49.242;9.334;2024-02-21T13:17:04;11.85;;;10.27;;
1368;SDS011;678;49.242;9.334;2024-02-21T13:19:31;14.05;;;9.90;;
1368;SDS011;678;49.242;9.334;2024-02-21T13:21:58;9.98;;;9.00;;
1368;SDS011;678;49.242;9.334;2024-02-21T13:24:25;17.73;;;7.03;;
1368;SDS011;678;49.242;9.334;2024-02-21T13:26:52;11.70;;;10.27;;
1368;SDS011;678;49.242;9.334;2024-02-21T13:29:19;14.32;;;10.82;;
1368;SDS011;678;49.242;9.334;2024-02-21T13:31:48;14.73;;;13.20;;
1368;SDS011;678;49.242;9.334;2024-02-21T13:34:15;16.50;;;14.93;;
1368;SDS011;678;49.242;9.334;2024-02-21T13:36:43;32.80;;;21.90;;
1368;SDS011;678;49.242;9.334;2024-02-21T13:39:10;42.58;;;33.22;;
1368;SDS011;678;49.242;9.334;2024-02-21T13:41:40;61.97;;;44.30;;
1368;SDS011;678;49.242;9.334;2024-02-21T13:44:07;61.47;;;49.40;;
1368;SDS011;678;49.242;9.334;2024-02-21T13:46:35;46.35;;;35.10;;
1368;SDS011;678;49.242;9.334;2024-02-21T13:49:04;50.40;;;36.88;;
1368;SDS011;678;49.242;9.334;2024-02-21T13:51:32;39.00;;;34.20;;
1368;SDS011;678;49.242;9.334;2024-02-21T13:54:01;51.65;;;39.90;;
1368;SDS011;678;49.242;9.334;2024-02-21T13:56:28;50.08;;;37.83;;
1368;SDS011;678;49.242;9.334;2024-02-21T13:58:55;55.92;;;31.73;;
1368;SDS011;678;49.242;9.334;2024-02-21T14:01:22;41.03;;;28.15;;
1368;SDS011;678;49.242;9.334;2024-02-21T14:03:49;38.70;;;29.58;;
1368;SDS011;678;49.242;9.334;2024-02-21T14:06:18;32.00;;;28.67;;
1368;SDS011;678;49.242;9.334;2024-02-21T14:08:45;47.38;;;26.85;;
1368;SDS011;678;49.242;9.334;2024-02-21T14:11:12;28.05;;;21.77;;
1368;SDS011;678;49.242;9.334;2024-02-21T14:13:39;32.25;;;25.60;;
1368;SDS011;678;49.242;9.334;2024-02-21T14:16:09;28.42;;;25.48;;
1368;SDS011;678;49.242;9.334;2024-02-21T14:18:38;26.55;;;20.13;;
1368;SDS011;678;49.242;9.334;2024-02-21T14:21:06;33.40;;;24.02;;
1368;SDS011;678;49.242;9.334;2024-02-21T14:23:34;33.28;;;23.13;;
1368;SDS011;678;49.242;9.334;2024-02-21T14:26:02;25.83;;;17.92;;
1368;SDS011;678;49.242;9.334;2024-02-21T14:28:29;27.33;;;22.40;;
1368;SDS011;678;49.242;9.334;2024-02-21T14:30:56;21.38;;;15.40;;
1368;SDS011;678;49.242;9.334;2024-02-21T14:33:25;22.55;;;19.05;;
1368;SDS011;678;49.242;9.334;2024-02-21T14:35:52;19.00;;;17.20;;
1368;SDS011;678;49.242;9.334;2024-02-21T14:38:19;26.33;;;18.58;;
1368;SDS011;678;49.242;9.334;2024-02-21T14:40:47;22.75;;;13.27;;
1368;SDS011;678;49.242;9.334;2024-02-21T14:43:14;15.23;;;13.65;;
1368;SDS011;678;49.242;9.334;2024-02-21T14:45:42;13.73;;;11.45;;
1368;SDS011;678;49.242;9.334;2024-02-21T14:48:09;19.83;;;14.68;;
1368;SDS011;678;49.242;9.334;2024-02-21T14:50:37;13.93;;;12.25;;
1368;SDS011;678;49.242;9.334;2024-02-21T14:53:04;17.77;;;12.63;;
1368;SDS011;678;49.242;9.334;2024-02-21T14:55:32;13.93;;;11.02;;
1368;SDS011;678;49.242;9.334;2024-02-21T14:58:01;20.52;;;13.52;;
1368;SDS011;678;49.242;9.334;2024-02-21T15:00:28;15.80;;;12.38;;
1368;SDS011;678;49.242;9.334;2024-02-21T15:02:55;14.73;;;13.15;;
1368;SDS011;678;49.242;9.334;2024-02-21T15:05:23;16.90;;;11.05;;
1368;SDS011;678;49.242;9.334;2024-02-21T15:07:50;11.88;;;10.93;;
1368;SDS011;678;49.242;9.334;2024-02-21T15:10:17;9.43;;;8.73;;
1368;SDS011;678;49.242;9.334;2024-02-21T15:12:44;18.75;;;6.35;;
1368;SDS011;678;49.242;9.334;2024-02-21T15:15:13;6.15;;;5.75;;
1368;SDS011;678;49.242;9.334;2024-02-21T15:17:40;10.10;;;6.75;;
1368;SDS011;678;49.242;9.334;2024-02-21T15:20:07;8.18;;;7.22;;
1368;SDS011;678;49.242;9.334;2024-02-21T15:22:35;7.55;;;6.03;;
1368;SDS011;678;49.242;9.334;2024-02-21T15:25:03;8.05;;;7.32;;
1368;SDS011;678;49.242;9.334;2024-02-21T15:27:30;10.00;;;7.10;;